createdAt,value
2023-02-25T00:00:34.511Z,-3.79
2023-02-25T00:03:01.874Z,-3.76
2023-02-25T00:05:31.700Z,-3.76
2023-02-25T00:07:59.723Z,-3.75
2023-02-25T00:10:26.691Z,-3.74
2023-02-25T00:12:53.435Z,-3.73
2023-02-25T00:15:20.287Z,-3.74
2023-02-25T00:17:50.256Z,-3.74
2023-02-25T00:20:20.834Z,-3.73
2023-02-25T00:22:47.602Z,-3.73
2023-02-25T00:25:16.867Z,-3.73
2023-02-25T00:27:44.319Z,-3.72
2023-02-25T00:30:12.245Z,-3.71
2023-02-25T00:32:39.718Z,-3.69
2023-02-25T00:35:07.211Z,-3.68
2023-02-25T00:37:33.956Z,-3.67
2023-02-25T00:40:00.730Z,-3.66
2023-02-25T00:42:27.484Z,-3.66
2023-02-25T00:44:54.261Z,-3.65
2023-02-25T00:47:21.127Z,-3.65
2023-02-25T00:49:48.182Z,-3.63
2023-02-25T00:52:15.485Z,-3.63
2023-02-25T00:54:42.437Z,-3.65
2023-02-25T00:57:09.747Z,-3.64
2023-02-25T00:59:36.610Z,-3.65
2023-02-25T01:02:03.357Z,-3.61
2023-02-25T01:04:30.183Z,-3.60
2023-02-25T01:06:57.094Z,-3.57
2023-02-25T01:09:23.865Z,-3.56
2023-02-25T01:11:51.007Z,-3.57
2023-02-25T01:14:23.927Z,-3.56
2023-02-25T01:16:51.480Z,-3.55
2023-02-25T01:19:25.490Z,-3.51
2023-02-25T01:21:55.419Z,-3.53
2023-02-25T01:24:28.048Z,-3.52
2023-02-25T01:26:57.559Z,-3.52
2023-02-25T01:29:30.374Z,-3.46
2023-02-25T01:32:00.094Z,-3.46
2023-02-25T01:34:28.868Z,-3.46
2023-02-25T01:36:56.702Z,-3.46
2023-02-25T01:39:26.449Z,-3.45
2023-02-25T01:41:55.850Z,-3.46
2023-02-25T01:44:44.066Z,-3.46
2023-02-25T01:47:20.803Z,-3.42
2023-02-25T01:49:47.737Z,-3.44
2023-02-25T01:52:21.283Z,-3.41
2023-02-25T01:54:52.422Z,-3.38
2023-02-25T01:57:20.973Z,-3.42
2023-02-25T01:59:49.234Z,-3.39
2023-02-25T02:02:20.565Z,-3.38
2023-02-25T02:04:53.153Z,-3.36
2023-02-25T02:07:21.676Z,-3.37
2023-02-25T02:09:57.663Z,-3.37
2023-02-25T02:12:31.663Z,-3.33
2023-02-25T02:15:00.893Z,-3.35
2023-02-25T02:17:38.743Z,-3.30
2023-02-25T02:20:24.301Z,-3.28
2023-02-25T02:23:03.886Z,-3.32
2023-02-25T02:25:59.667Z,-3.27
2023-02-25T02:29:12.197Z,-3.26
2023-02-25T02:31:49.846Z,-3.27
2023-02-25T02:34:40.045Z,-3.24
2023-02-25T02:37:27.948Z,-3.26
2023-02-25T02:40:19.641Z,-3.24
2023-02-25T02:42:58.529Z,-3.26
2023-02-25T02:45:50.559Z,-3.23
2023-02-25T02:48:23.749Z,-3.30
2023-02-25T02:51:01.216Z,-3.28
2023-02-25T02:53:31.028Z,-3.29
2023-02-25T02:56:01.796Z,-3.32
2023-02-25T02:58:37.093Z,-3.30
2023-02-25T03:01:09.761Z,-3.28
2023-02-25T03:03:44.197Z,-3.28
2023-02-25T03:06:16.017Z,-3.26
2023-02-25T03:08:44.864Z,-3.19
2023-02-25T03:11:12.778Z,-3.23
2023-02-25T03:13:40.108Z,-3.18
2023-02-25T03:16:12.511Z,-3.15
2023-02-25T03:18:44.310Z,-3.15
2023-02-25T03:21:18.537Z,-3.11
2023-02-25T03:23:47.860Z,-3.11
2023-02-25T03:26:24.501Z,-3.06
2023-02-25T03:28:52.142Z,-3.09
2023-02-25T03:31:43.919Z,-3.00
2023-02-25T03:34:16.271Z,-3.03
2023-02-25T03:36:49.524Z,-2.99
2023-02-25T03:39:20.615Z,-2.98
2023-02-25T03:41:52.394Z,-2.96
2023-02-25T03:44:33.891Z,-2.92
2023-02-25T03:47:04.663Z,-2.91
2023-02-25T03:49:38.026Z,-2.88
2023-02-25T03:52:11.938Z,-2.86
2023-02-25T03:54:38.739Z,-2.85
2023-02-25T03:57:05.952Z,-2.84
2023-02-25T03:59:32.717Z,-2.82
2023-02-25T04:02:01.322Z,-2.80
2023-02-25T04:04:28.371Z,-2.81
2023-02-25T04:06:55.186Z,-2.78
2023-02-25T04:09:21.915Z,-2.76
2023-02-25T04:11:49.215Z,-2.75
2023-02-25T04:14:17.082Z,-2.73
2023-02-25T04:16:43.845Z,-2.71
2023-02-25T04:19:10.629Z,-2.70
2023-02-25T04:21:37.791Z,-2.66
2023-02-25T04:24:06.863Z,-2.66
2023-02-25T04:26:36.802Z,-2.63
2023-02-25T04:29:04.116Z,-2.62
2023-02-25T04:31:31.265Z,-2.61
2023-02-25T04:33:58.348Z,-2.59
2023-02-25T04:36:35.977Z,-2.52
2023-02-25T04:39:05.465Z,-2.56
2023-02-25T04:41:35.117Z,-2.56
2023-02-25T04:44:05.680Z,-2.58
2023-02-25T04:46:35.719Z,-2.56
2023-02-25T04:49:03.306Z,-2.55
2023-02-25T04:51:30.336Z,-2.55
2023-02-25T04:53:57.082Z,-2.54
2023-02-25T04:56:24.640Z,-2.51
2023-02-25T04:58:51.798Z,-2.48
2023-02-25T05:01:18.575Z,-2.46
2023-02-25T05:03:45.402Z,-2.42
2023-02-25T05:06:12.228Z,-2.39
2023-02-25T05:08:39.137Z,-2.37
2023-02-25T05:11:06.087Z,-2.36
2023-02-25T05:13:32.881Z,-2.32
2023-02-25T05:16:16.498Z,-2.24
2023-02-25T05:18:45.577Z,-2.24
2023-02-25T05:21:15.754Z,-2.20
2023-02-25T05:23:44.010Z,-2.19
2023-02-25T05:26:11.609Z,-2.16
2023-02-25T05:28:38.635Z,-2.15
2023-02-25T05:31:07.327Z,-2.13
2023-02-25T05:33:35.608Z,-2.13
2023-02-25T05:36:05.104Z,-2.12
2023-02-25T05:38:31.881Z,-2.08
2023-02-25T05:41:02.032Z,-2.04
2023-02-25T05:43:29.190Z,-2.03
2023-02-25T05:45:57.568Z,-1.97
2023-02-25T05:48:24.533Z,-1.94
2023-02-25T05:50:52.300Z,-1.93
2023-02-25T05:53:20.006Z,-1.87
2023-02-25T05:55:47.137Z,-1.87
2023-02-25T05:58:13.894Z,-1.84
2023-02-25T06:00:40.620Z,-1.80
2023-02-25T06:03:07.508Z,-1.76
2023-02-25T06:05:34.324Z,-1.71
2023-02-25T06:08:01.207Z,-1.68
2023-02-25T06:10:28.368Z,-1.66
2023-02-25T06:12:55.148Z,-1.63
2023-02-25T06:15:21.883Z,-1.56
2023-02-25T06:17:49.835Z,-1.55
2023-02-25T06:20:17.970Z,-1.49
2023-02-25T06:22:44.787Z,-1.45
2023-02-25T06:25:11.567Z,-1.40
2023-02-25T06:27:38.325Z,-1.39
2023-02-25T06:30:05.448Z,-1.35
2023-02-25T06:32:32.437Z,-1.32
2023-02-25T06:34:59.376Z,-1.31
2023-02-25T06:37:26.183Z,-1.31
2023-02-25T06:39:53.443Z,-1.29
2023-02-25T06:42:20.326Z,-1.27
2023-02-25T06:44:47.037Z,-1.28
2023-02-25T06:47:13.934Z,-1.25
2023-02-25T06:49:40.699Z,-1.21
2023-02-25T06:52:07.507Z,-1.18
2023-02-25T06:54:34.324Z,-1.15
2023-02-25T06:57:01.032Z,-1.16
2023-02-25T06:59:27.799Z,-1.16
2023-02-25T07:01:54.551Z,-1.15
2023-02-25T07:04:21.598Z,-1.13
2023-02-25T07:06:48.438Z,-1.09
2023-02-25T07:09:15.276Z,-1.06
2023-02-25T07:11:42.024Z,-0.99
2023-02-25T07:14:08.863Z,-0.90
2023-02-25T07:16:38.269Z,-0.90
2023-02-25T07:19:05.064Z,-0.86
2023-02-25T07:21:31.929Z,-0.85
2023-02-25T07:23:58.802Z,-0.83
2023-02-25T07:26:28.480Z,-0.80
2023-02-25T07:28:57.062Z,-0.78
2023-02-25T07:31:24.836Z,-0.77
2023-02-25T07:33:53.976Z,-0.74
2023-02-25T07:36:20.800Z,-0.71
2023-02-25T07:38:50.569Z,-0.68
2023-02-25T07:41:19.222Z,-0.64
2023-02-25T07:43:46.362Z,-0.65
2023-02-25T07:46:13.614Z,-0.61
2023-02-25T07:48:40.970Z,-0.61
2023-02-25T07:51:18.591Z,-0.55
2023-02-25T07:53:46.695Z,-0.58
2023-02-25T07:56:14.497Z,-0.58
2023-02-25T07:58:41.437Z,-0.54
2023-02-25T08:01:16.505Z,-0.48
2023-02-25T08:03:43.245Z,-0.49
2023-02-25T08:06:09.963Z,-0.48
2023-02-25T08:08:37.427Z,-0.44
2023-02-25T08:11:12.203Z,-0.39
2023-02-25T08:13:39.121Z,-0.37
2023-02-25T08:16:09.206Z,-0.35
2023-02-25T08:18:36.707Z,-0.35
2023-02-25T08:21:04.635Z,-0.31
2023-02-25T08:23:31.685Z,-0.25
2023-02-25T08:25:59.023Z,-0.23
2023-02-25T08:28:27.274Z,-0.17
2023-02-25T08:30:54.732Z,-0.15
2023-02-25T08:33:21.952Z,-0.13
2023-02-25T08:35:48.787Z,-0.11
2023-02-25T08:38:15.580Z,-0.07
2023-02-25T08:40:43.193Z,-0.05
2023-02-25T08:43:10.804Z,-0.02
2023-02-25T08:45:39.167Z,0.04
2023-02-25T08:48:06.000Z,0.08
2023-02-25T08:50:32.740Z,0.11
2023-02-25T08:52:59.446Z,0.14
2023-02-25T08:55:26.309Z,0.17
2023-02-25T08:57:53.915Z,0.18
2023-02-25T09:00:21.466Z,0.19
2023-02-25T09:02:49.516Z,0.19
2023-02-25T09:05:18.259Z,0.19
2023-02-25T09:07:47.151Z,0.23
2023-02-25T09:10:13.949Z,0.22
2023-02-25T09:12:42.332Z,0.25
2023-02-25T09:15:10.958Z,0.27
2023-02-25T09:17:38.877Z,0.27
2023-02-25T09:20:07.321Z,0.28
2023-02-25T09:22:36.241Z,0.32
2023-02-25T09:25:04.417Z,0.36
2023-02-25T09:27:31.214Z,0.38
2023-02-25T09:29:58.042Z,0.41
2023-02-25T09:32:24.964Z,0.45
2023-02-25T09:34:52.776Z,0.44
2023-02-25T09:37:19.811Z,0.44
2023-02-25T09:39:46.760Z,0.45
2023-02-25T09:42:23.000Z,0.51
2023-02-25T09:44:53.571Z,0.57
2023-02-25T09:47:28.488Z,0.62
2023-02-25T09:50:04.607Z,0.70
2023-02-25T09:52:45.037Z,0.74
2023-02-25T09:55:23.695Z,0.81
2023-02-25T09:58:05.124Z,0.78
2023-02-25T10:00:37.331Z,0.79
2023-02-25T10:03:22.962Z,0.90
2023-02-25T10:06:04.952Z,1.00
2023-02-25T10:08:57.252Z,1.04
2023-02-25T10:11:33.973Z,1.13
2023-02-25T10:14:06.592Z,1.07
2023-02-25T10:16:42.499Z,1.11
2023-02-25T10:19:20.417Z,1.13
2023-02-25T10:21:50.012Z,1.14
2023-02-25T10:24:30.592Z,1.20
2023-02-25T10:27:11.399Z,1.14
2023-02-25T10:29:52.676Z,1.21
2023-02-25T10:32:26.343Z,1.23
2023-02-25T10:34:58.051Z,1.18
2023-02-25T10:37:37.658Z,1.21
2023-02-25T10:40:10.969Z,1.17
2023-02-25T10:42:38.049Z,1.14
2023-02-25T10:45:13.781Z,1.13
2023-02-25T10:47:45.119Z,1.09
2023-02-25T10:50:14.989Z,1.04
2023-02-25T10:53:17.954Z,1.10
2023-02-25T10:55:46.894Z,1.07
2023-02-25T10:58:35.122Z,1.14
2023-02-25T11:01:14.016Z,1.16
2023-02-25T11:03:53.236Z,1.17
2023-02-25T11:06:25.072Z,1.15
2023-02-25T11:08:54.799Z,1.15
2023-02-25T11:11:29.186Z,1.19
2023-02-25T11:14:14.829Z,1.19
2023-02-25T11:16:44.552Z,1.17
2023-02-25T11:19:20.562Z,1.22
2023-02-25T11:21:48.083Z,1.23
2023-02-25T11:24:18.253Z,1.23
2023-02-25T11:26:48.105Z,1.23
2023-02-25T11:29:23.055Z,1.24
2023-02-25T11:31:58.612Z,1.25
2023-02-25T11:34:28.606Z,1.26
2023-02-25T11:36:55.410Z,1.22
2023-02-25T11:39:27.914Z,1.24
2023-02-25T11:42:18.063Z,1.28
2023-02-25T11:44:45.929Z,1.26
2023-02-25T11:47:30.728Z,1.29
2023-02-25T11:50:16.209Z,1.36
2023-02-25T11:52:51.658Z,1.28
2023-02-25T11:55:46.234Z,1.37
2023-02-25T11:58:18.678Z,1.38
2023-02-25T12:01:13.319Z,1.36
2023-02-25T12:04:07.880Z,1.38
2023-02-25T12:06:56.074Z,1.38
2023-02-25T12:09:31.569Z,1.40
2023-02-25T12:12:27.992Z,1.45
2023-02-25T12:15:19.806Z,1.42
2023-02-25T12:18:10.871Z,1.38
2023-02-25T12:21:03.438Z,1.40
2023-02-25T12:23:39.200Z,1.38
2023-02-25T12:26:06.650Z,1.38
2023-02-25T12:28:49.814Z,1.41
2023-02-25T12:31:50.433Z,1.39
2023-02-25T12:34:39.745Z,1.41
2023-02-25T12:37:18.642Z,1.40
2023-02-25T12:40:17.702Z,1.44
2023-02-25T12:43:13.716Z,1.39
2023-02-25T12:45:56.860Z,1.32
2023-02-25T12:48:41.967Z,1.35
2023-02-25T12:51:14.902Z,1.38
2023-02-25T12:54:21.388Z,1.43
2023-02-25T12:56:57.266Z,1.41
2023-02-25T13:00:06.021Z,1.44
2023-02-25T13:02:42.093Z,1.38
2023-02-25T13:05:37.080Z,1.37
2023-02-25T13:08:06.600Z,1.27
2023-02-25T13:11:04.349Z,1.30
2023-02-25T13:13:50.767Z,1.32
2023-02-25T13:16:54.551Z,1.29
2023-02-25T13:19:54.426Z,1.24
2023-02-25T13:22:39.581Z,1.25
2023-02-25T13:25:21.290Z,1.21
2023-02-25T13:28:06.886Z,1.19
2023-02-25T13:30:54.068Z,1.21
2023-02-25T13:33:42.428Z,1.23
2023-02-25T13:36:19.074Z,1.23
2023-02-25T13:38:55.087Z,1.15
2023-02-25T13:41:47.951Z,1.21
2023-02-25T13:44:45.375Z,1.22
2023-02-25T13:47:28.689Z,1.23
2023-02-25T13:50:28.970Z,1.27
2023-02-25T13:53:24.633Z,1.23
2023-02-25T13:56:28.424Z,1.30
2023-02-25T13:59:01.093Z,1.27
2023-02-25T14:02:04.041Z,1.26
2023-02-25T14:04:36.661Z,1.17
2023-02-25T14:07:29.546Z,1.24
2023-02-25T14:10:21.557Z,1.22
2023-02-25T14:13:13.717Z,1.22
2023-02-25T14:15:58.491Z,1.13
2023-02-25T14:18:25.232Z,1.14
2023-02-25T14:21:04.355Z,1.17
2023-02-25T14:24:13.484Z,1.17
2023-02-25T14:27:11.067Z,1.21
2023-02-25T14:30:15.090Z,1.18
2023-02-25T14:33:00.268Z,1.07
2023-02-25T14:35:33.315Z,1.08
2023-02-25T14:38:15.782Z,1.11
2023-02-25T14:40:53.371Z,1.07
2023-02-25T14:43:40.527Z,1.07
2023-02-25T14:46:40.426Z,1.09
2023-02-25T14:49:26.695Z,1.04
2023-02-25T14:52:12.053Z,1.03
2023-02-25T14:55:02.962Z,1.07
2023-02-25T14:57:36.661Z,1.04
2023-02-25T15:00:27.870Z,1.08
2023-02-25T15:03:06.701Z,1.08
2023-02-25T15:06:27.920Z,1.11
2023-02-25T15:09:13.360Z,1.05
2023-02-25T15:12:02.054Z,1.09
2023-02-25T15:14:40.945Z,1.05
2023-02-25T15:17:35.656Z,1.02
2023-02-25T15:20:09.847Z,0.99
2023-02-25T15:22:41.925Z,0.95
2023-02-25T15:25:20.636Z,0.99
2023-02-25T15:27:47.763Z,0.92
2023-02-25T15:30:21.240Z,0.92
2023-02-25T15:32:58.063Z,0.89
2023-02-25T15:35:37.066Z,0.89
2023-02-25T15:38:09.775Z,0.85
2023-02-25T15:40:55.355Z,0.85
2023-02-25T15:43:26.416Z,0.79
2023-02-25T15:46:08.394Z,0.80
2023-02-25T15:48:36.279Z,0.84
2023-02-25T15:51:06.356Z,0.76
2023-02-25T15:53:39.760Z,0.78
2023-02-25T15:56:06.676Z,0.74
2023-02-25T15:58:33.392Z,0.75
2023-02-25T16:01:07.274Z,0.75
2023-02-25T16:03:36.898Z,0.75
2023-02-25T16:06:23.133Z,0.81
2023-02-25T16:09:04.289Z,0.74
2023-02-25T16:11:44.633Z,0.77
2023-02-25T16:14:33.770Z,0.78
2023-02-25T16:17:14.189Z,0.74
2023-02-25T16:19:41.994Z,0.72
2023-02-25T16:22:37.712Z,0.67
2023-02-25T16:25:06.320Z,0.65
2023-02-25T16:27:47.220Z,0.63
2023-02-25T16:30:44.501Z,0.67
2023-02-25T16:33:30.561Z,0.60
2023-02-25T16:36:10.512Z,0.64
2023-02-25T16:38:42.766Z,0.59
2023-02-25T16:41:11.627Z,0.52
2023-02-25T16:43:40.944Z,0.50
2023-02-25T16:46:12.866Z,0.49
2023-02-25T16:48:46.340Z,0.55
2023-02-25T16:51:26.092Z,0.45
2023-02-25T16:54:06.425Z,0.43
2023-02-25T16:56:33.823Z,0.38
2023-02-25T16:59:05.992Z,0.40
2023-02-25T17:01:35.675Z,0.38
2023-02-25T17:04:19.952Z,0.36
2023-02-25T17:07:23.159Z,0.43
2023-02-25T17:09:51.933Z,0.39
2023-02-25T17:12:41.362Z,0.39
2023-02-25T17:15:19.682Z,0.42
2023-02-25T17:17:50.166Z,0.41
2023-02-25T17:20:24.401Z,0.41
2023-02-25T17:22:52.506Z,0.41
2023-02-25T17:25:22.836Z,0.45
2023-02-25T17:27:50.496Z,0.42
2023-02-25T17:30:37.917Z,0.45
2023-02-25T17:33:06.132Z,0.38
2023-02-25T17:35:35.640Z,0.40
2023-02-25T17:38:02.898Z,0.37
2023-02-25T17:40:30.087Z,0.37
2023-02-25T17:43:21.322Z,0.42
2023-02-25T17:46:16.580Z,0.43
2023-02-25T17:48:50.067Z,0.41
2023-02-25T17:51:17.074Z,0.40
2023-02-25T17:54:18.696Z,0.41
2023-02-25T17:56:46.653Z,0.40
2023-02-25T17:59:13.385Z,0.37
2023-02-25T18:01:53.320Z,0.38
2023-02-25T18:04:25.171Z,0.34
2023-02-25T18:06:55.432Z,0.35
2023-02-25T18:09:31.819Z,0.40
2023-02-25T18:12:02.225Z,0.40
2023-02-25T18:14:40.892Z,0.41
2023-02-25T18:17:23.542Z,0.44
2023-02-25T18:19:50.617Z,0.37
2023-02-25T18:23:02.238Z,0.43
2023-02-25T18:25:35.836Z,0.37
2023-02-25T18:28:04.824Z,0.35
2023-02-25T18:30:33.042Z,0.32
2023-02-25T18:33:00.262Z,0.31
2023-02-25T18:35:29.665Z,0.31
2023-02-25T18:37:57.590Z,0.29
2023-02-25T18:40:54.581Z,0.34
2023-02-25T18:43:24.315Z,0.29
2023-02-25T18:45:51.172Z,0.25
2023-02-25T18:48:19.834Z,0.28
2023-02-25T18:50:46.840Z,0.23
2023-02-25T18:53:24.528Z,0.28
2023-02-25T18:55:52.975Z,0.25
2023-02-25T18:58:21.865Z,0.23
2023-02-25T19:00:55.059Z,0.23
2023-02-25T19:03:33.427Z,0.25
2023-02-25T19:06:00.269Z,0.22
2023-02-25T19:08:27.126Z,0.17
2023-02-25T19:10:54.845Z,0.21
2023-02-25T19:13:35.063Z,0.23
2023-02-25T19:16:02.593Z,0.21
2023-02-25T19:18:29.558Z,0.19
2023-02-25T19:20:56.794Z,0.19
2023-02-25T19:23:23.588Z,0.17
2023-02-25T19:25:55.724Z,0.21
2023-02-25T19:28:22.930Z,0.21
2023-02-25T19:30:51.281Z,0.19
2023-02-25T19:33:20.429Z,0.17
2023-02-25T19:35:47.250Z,0.13
2023-02-25T19:38:19.047Z,0.13
2023-02-25T19:40:48.462Z,0.14
2023-02-25T19:43:16.688Z,0.13
2023-02-25T19:45:44.340Z,0.09
2023-02-25T19:48:11.626Z,0.05
2023-02-25T19:50:40.975Z,0.07
2023-02-25T19:53:07.955Z,0.02
2023-02-25T19:55:35.115Z,0.02
2023-02-25T19:58:02.261Z,0.00
2023-02-25T20:00:29.173Z,-0.01
2023-02-25T20:02:56.358Z,-0.02
2023-02-25T20:05:24.325Z,-0.03
2023-02-25T20:07:51.429Z,-0.04
2023-02-25T20:10:18.843Z,-0.04
2023-02-25T20:12:47.712Z,-0.02
2023-02-25T20:15:16.205Z,-0.02
2023-02-25T20:17:45.177Z,0.01
2023-02-25T20:20:13.456Z,-0.02
2023-02-25T20:22:40.830Z,-0.01
2023-02-25T20:25:09.953Z,-0.03
2023-02-25T20:27:39.219Z,-0.04
2023-02-25T20:30:07.048Z,-0.04
2023-02-25T20:32:34.401Z,-0.05
2023-02-25T20:35:01.425Z,-0.06
2023-02-25T20:37:31.896Z,-0.02
2023-02-25T20:39:59.817Z,-0.03
2023-02-25T20:42:30.126Z,0.00
2023-02-25T20:44:58.833Z,-0.02
2023-02-25T20:47:37.270Z,0.02
2023-02-25T20:50:06.361Z,-0.01
2023-02-25T20:52:33.330Z,0.00
2023-02-25T20:55:02.711Z,-0.01
2023-02-25T20:57:30.515Z,-0.01
2023-02-25T20:59:57.271Z,0.02
2023-02-25T21:02:24.267Z,0.02
2023-02-25T21:04:52.010Z,0.04
2023-02-25T21:07:18.969Z,0.04
2023-02-25T21:09:45.868Z,0.04
2023-02-25T21:12:12.735Z,0.06
2023-02-25T21:14:39.518Z,0.05
2023-02-25T21:17:09.550Z,0.06
2023-02-25T21:19:38.707Z,0.06
2023-02-25T21:22:06.915Z,0.08
2023-02-25T21:24:34.641Z,0.09
2023-02-25T21:27:02.070Z,0.08
2023-02-25T21:29:29.257Z,0.12
2023-02-25T21:31:56.723Z,0.11
2023-02-25T21:34:23.546Z,0.11
2023-02-25T21:36:50.343Z,0.11
2023-02-25T21:39:17.086Z,0.12
2023-02-25T21:41:45.067Z,0.13
2023-02-25T21:44:12.612Z,0.14
2023-02-25T21:46:40.005Z,0.13
2023-02-25T21:49:06.795Z,0.13
2023-02-25T21:51:33.876Z,0.15
2023-02-25T21:54:01.547Z,0.15
2023-02-25T21:56:29.711Z,0.16
2023-02-25T21:58:59.103Z,0.18
2023-02-25T22:01:29.621Z,0.21
2023-02-25T22:03:56.517Z,0.21
2023-02-25T22:06:24.402Z,0.22
2023-02-25T22:08:52.542Z,0.24
2023-02-25T22:11:22.769Z,0.26
2023-02-25T22:13:50.707Z,0.25
2023-02-25T22:16:18.244Z,0.25
2023-02-25T22:18:45.838Z,0.26
2023-02-25T22:21:15.652Z,0.27
2023-02-25T22:23:43.566Z,0.25
2023-02-25T22:26:13.591Z,0.27
2023-02-25T22:28:41.183Z,0.26
2023-02-25T22:31:16.449Z,0.28
2023-02-25T22:33:44.587Z,0.27
2023-02-25T22:36:13.520Z,0.27
2023-02-25T22:38:42.079Z,0.25
2023-02-25T22:41:18.120Z,0.26
2023-02-25T22:43:45.618Z,0.24
2023-02-25T22:46:21.617Z,0.27
2023-02-25T22:48:49.743Z,0.25
2023-02-25T22:51:21.613Z,0.28
2023-02-25T22:53:48.300Z,0.34
2023-02-25T22:56:15.326Z,0.24
2023-02-25T22:58:42.233Z,0.24
2023-02-25T23:01:11.452Z,0.25
2023-02-25T23:03:43.758Z,0.26
2023-02-25T23:06:11.670Z,0.24
2023-02-25T23:08:39.327Z,0.25
2023-02-25T23:11:22.293Z,0.25
2023-02-25T23:13:52.490Z,0.24
2023-02-25T23:16:23.884Z,0.22
2023-02-25T23:18:51.996Z,0.23
2023-02-25T23:21:20.101Z,0.21
2023-02-25T23:23:48.735Z,0.18
2023-02-25T23:26:18.525Z,0.18
2023-02-25T23:28:46.335Z,0.18
2023-02-25T23:31:25.824Z,0.22
2023-02-25T23:34:05.610Z,0.22
2023-02-25T23:36:32.408Z,0.15
2023-02-25T23:39:00.626Z,0.16
2023-02-25T23:41:28.611Z,0.18
2023-02-25T23:43:57.601Z,0.21
2023-02-25T23:46:26.631Z,0.20
2023-02-25T23:48:57.930Z,0.21
2023-02-25T23:51:25.715Z,0.19
2023-02-25T23:53:54.497Z,0.18
2023-02-25T23:56:22.408Z,0.17
2023-02-25T23:58:50.773Z,0.18
